createdAt,value
2023-05-20T00:01:56.132Z,67.10
2023-05-20T00:04:23.266Z,67.10
2023-05-20T00:06:50.166Z,67.10
2023-05-20T00:09:17.407Z,67.60
2023-05-20T00:11:44.240Z,67.70
2023-05-20T00:14:11.146Z,67.50
2023-05-20T00:16:38.063Z,66.90
2023-05-20T00:19:05.032Z,67.50
2023-05-20T00:21:31.919Z,67.10
2023-05-20T00:23:58.811Z,67.20
2023-05-20T00:26:26.748Z,68.10
2023-05-20T00:28:53.557Z,67.70
2023-05-20T00:31:20.510Z,68.00
2023-05-20T00:33:47.473Z,68.30
2023-05-20T00:36:14.270Z,68.60
2023-05-20T00:38:41.062Z,68.60
2023-05-20T00:41:07.920Z,69.40
2023-05-20T00:43:34.716Z,68.70
2023-05-20T00:46:02.092Z,69.90
2023-05-20T00:48:39.064Z,70.30
2023-05-20T00:51:07.687Z,71.10
2023-05-20T00:53:36.590Z,70.80
2023-05-20T00:56:04.834Z,71.60
2023-05-20T00:58:32.498Z,69.90
2023-05-20T01:00:59.359Z,70.80
2023-05-20T01:03:27.543Z,72.30
2023-05-20T01:05:54.679Z,72.70
2023-05-20T01:08:26.210Z,72.70
2023-05-20T01:11:05.069Z,73.30
2023-05-20T01:13:37.916Z,73.10
2023-05-20T01:16:05.402Z,73.90
2023-05-20T01:18:33.456Z,73.90
2023-05-20T01:21:03.718Z,73.90
2023-05-20T01:23:41.441Z,72.60
2023-05-20T01:26:10.244Z,73.50
2023-05-20T01:28:39.463Z,74.00
2023-05-20T01:31:10.985Z,74.20
2023-05-20T01:33:39.699Z,74.70
2023-05-20T01:36:07.657Z,75.70
2023-05-20T01:38:36.416Z,75.80
2023-05-20T01:41:05.795Z,75.70
2023-05-20T01:43:33.022Z,76.00
2023-05-20T01:46:02.798Z,76.30
2023-05-20T01:48:29.651Z,76.60
2023-05-20T01:50:56.524Z,76.90
2023-05-20T01:53:23.324Z,76.90
2023-05-20T01:55:50.165Z,77.20
2023-05-20T01:58:17.025Z,77.10
2023-05-20T02:00:44.316Z,77.40
2023-05-20T02:03:11.422Z,77.80
2023-05-20T02:05:38.530Z,77.90
2023-05-20T02:08:06.065Z,77.80
2023-05-20T02:10:32.900Z,78.00
2023-05-20T02:12:59.670Z,78.20
2023-05-20T02:15:26.597Z,78.30
2023-05-20T02:17:53.928Z,78.40
2023-05-20T02:20:20.754Z,78.70
2023-05-20T02:22:47.661Z,78.70
2023-05-20T02:25:14.524Z,78.60
2023-05-20T02:27:41.655Z,78.50
2023-05-20T02:30:09.148Z,78.70
2023-05-20T02:32:36.293Z,78.90
2023-05-20T02:35:03.184Z,78.90
2023-05-20T02:37:29.977Z,78.50
2023-05-20T02:39:56.879Z,78.60
2023-05-20T02:42:23.728Z,79.00
2023-05-20T02:44:50.700Z,78.90
2023-05-20T02:47:17.599Z,78.70
2023-05-20T02:49:44.479Z,79.00
2023-05-20T02:52:11.354Z,78.80
2023-05-20T02:54:38.232Z,79.20
2023-05-20T02:57:05.189Z,79.20
2023-05-20T02:59:31.932Z,79.30
2023-05-20T03:01:58.958Z,79.50
2023-05-20T03:04:27.149Z,79.60
2023-05-20T03:06:54.083Z,79.50
2023-05-20T03:09:21.079Z,79.60
2023-05-20T03:11:48.457Z,80.10
2023-05-20T03:14:15.301Z,79.80
2023-05-20T03:16:42.157Z,80.00
2023-05-20T03:19:08.959Z,79.80
2023-05-20T03:21:36.130Z,80.20
2023-05-20T03:24:02.976Z,80.00
2023-05-20T03:26:30.637Z,79.90
2023-05-20T03:28:57.417Z,79.80
2023-05-20T03:31:24.315Z,80.00
2023-05-20T03:33:51.255Z,79.40
2023-05-20T03:36:18.128Z,79.60
2023-05-20T03:38:44.933Z,79.20
2023-05-20T03:41:11.742Z,78.20
2023-05-20T03:43:38.657Z,77.10
2023-05-20T03:46:05.684Z,76.70
2023-05-20T03:48:32.494Z,76.10
2023-05-20T03:50:59.285Z,75.60
2023-05-20T03:53:26.393Z,75.40
2023-05-20T03:55:53.396Z,75.70
2023-05-20T03:58:22.362Z,76.10
2023-05-20T04:00:49.415Z,76.90
2023-05-20T04:03:16.369Z,76.50
2023-05-20T04:05:43.236Z,77.00
2023-05-20T04:08:10.031Z,77.10
2023-05-20T04:10:36.898Z,77.60
2023-05-20T04:13:03.827Z,78.30
2023-05-20T04:15:30.856Z,78.10
2023-05-20T04:17:57.866Z,78.60
2023-05-20T04:20:24.875Z,78.90
2023-05-20T04:22:52.477Z,78.90
2023-05-20T04:25:19.728Z,79.10
2023-05-20T04:27:46.610Z,79.30
2023-05-20T04:30:13.949Z,79.30
2023-05-20T04:32:41.669Z,79.20
2023-05-20T04:35:11.964Z,78.70
2023-05-20T04:37:39.647Z,78.00
2023-05-20T04:40:06.981Z,77.10
2023-05-20T04:42:33.910Z,76.80
2023-05-20T04:45:02.127Z,76.60
2023-05-20T04:47:29.621Z,76.40
2023-05-20T04:50:00.056Z,76.80
2023-05-20T04:52:27.601Z,76.70
2023-05-20T04:54:58.229Z,76.90
2023-05-20T04:57:25.653Z,76.60
2023-05-20T04:59:52.574Z,77.00
2023-05-20T05:02:19.374Z,77.40
2023-05-20T05:04:46.272Z,77.70
2023-05-20T05:07:13.124Z,77.80
2023-05-20T05:09:39.935Z,78.20
2023-05-20T05:12:07.006Z,77.30
2023-05-20T05:14:33.877Z,77.20
2023-05-20T05:17:00.847Z,77.80
2023-05-20T05:19:28.982Z,77.80
2023-05-20T05:21:55.904Z,78.30
2023-05-20T05:24:22.675Z,78.70
2023-05-20T05:26:54.316Z,78.50
2023-05-20T05:29:21.297Z,78.90
2023-05-20T05:31:48.306Z,78.90
2023-05-20T05:34:15.204Z,79.10
2023-05-20T05:36:42.015Z,78.90
2023-05-20T05:39:08.907Z,78.90
2023-05-20T05:41:36.263Z,78.90
2023-05-20T05:44:03.078Z,79.40
2023-05-20T05:46:29.888Z,79.80
2023-05-20T05:48:59.018Z,80.30
2023-05-20T05:51:28.651Z,80.50
2023-05-20T05:53:55.508Z,80.50
2023-05-20T05:56:22.256Z,80.20
2023-05-20T05:58:49.021Z,80.30
2023-05-20T06:01:16.169Z,80.70
2023-05-20T06:03:43.175Z,81.40
2023-05-20T06:06:10.144Z,81.60
2023-05-20T06:08:36.959Z,81.60
2023-05-20T06:11:03.795Z,81.70
2023-05-20T06:13:30.741Z,82.00
2023-05-20T06:15:57.547Z,82.00
2023-05-20T06:18:24.418Z,81.50
2023-05-20T06:20:58.313Z,81.30
2023-05-20T06:23:25.046Z,81.10
2023-05-20T06:25:52.308Z,80.90
2023-05-20T06:28:19.255Z,81.10
2023-05-20T06:30:46.063Z,81.40
2023-05-20T06:33:13.044Z,81.40
2023-05-20T06:35:39.888Z,80.90
2023-05-20T06:38:06.763Z,81.60
2023-05-20T06:40:34.103Z,80.40
2023-05-20T06:43:01.101Z,80.20
2023-05-20T06:45:27.960Z,79.70
2023-05-20T06:47:55.148Z,80.00
2023-05-20T06:50:22.190Z,80.40
2023-05-20T06:52:49.123Z,80.50
2023-05-20T06:55:16.076Z,80.00
2023-05-20T06:57:42.981Z,80.30
2023-05-20T07:00:10.621Z,80.00
2023-05-20T07:02:37.690Z,80.30
2023-05-20T07:05:04.824Z,80.20
2023-05-20T07:07:31.798Z,79.60
2023-05-20T07:09:58.761Z,79.60
2023-05-20T07:12:25.601Z,78.80
2023-05-20T07:14:52.406Z,78.10
2023-05-20T07:17:19.258Z,79.70
2023-05-20T07:19:46.304Z,80.10
2023-05-20T07:22:13.198Z,79.30
2023-05-20T07:24:40.011Z,78.30
2023-05-20T07:27:06.922Z,79.20
2023-05-20T07:29:34.822Z,78.30
2023-05-20T07:32:02.125Z,77.70
2023-05-20T07:34:29.118Z,78.40
2023-05-20T07:36:57.096Z,78.80
2023-05-20T07:39:24.070Z,78.50
2023-05-20T07:41:51.038Z,77.80
2023-05-20T07:44:22.325Z,76.70
2023-05-20T07:46:49.361Z,77.30
2023-05-20T07:49:16.283Z,77.60
2023-05-20T07:51:43.098Z,78.60
2023-05-20T07:54:10.008Z,78.20
2023-05-20T07:56:37.010Z,76.60
2023-05-20T07:59:03.925Z,76.10
2023-05-20T08:01:30.991Z,75.40
2023-05-20T08:03:59.095Z,76.10
2023-05-20T08:06:28.653Z,76.40
2023-05-20T08:08:56.572Z,76.80
2023-05-20T08:11:23.429Z,76.90
2023-05-20T08:13:50.390Z,77.20
2023-05-20T08:16:17.261Z,74.20
2023-05-20T08:18:44.489Z,73.50
2023-05-20T08:21:12.748Z,73.50
2023-05-20T08:23:40.590Z,72.80
2023-05-20T08:26:07.745Z,71.90
2023-05-20T08:28:37.196Z,71.90
2023-05-20T08:31:04.590Z,72.10
2023-05-20T08:33:31.662Z,69.90
2023-05-20T08:35:58.525Z,70.20
2023-05-20T08:38:25.310Z,71.20
2023-05-20T08:40:55.157Z,69.40
2023-05-20T08:43:23.401Z,68.90
2023-05-20T08:45:52.473Z,66.70
2023-05-20T08:48:20.467Z,68.00
2023-05-20T08:50:51.165Z,65.60
2023-05-20T08:53:19.328Z,65.60
2023-05-20T08:55:55.093Z,65.40
2023-05-20T08:58:23.523Z,65.00
2023-05-20T09:00:51.627Z,64.80
2023-05-20T09:03:20.220Z,65.80
2023-05-20T09:05:47.934Z,64.60
2023-05-20T09:08:14.989Z,63.70
2023-05-20T09:10:42.419Z,63.40
2023-05-20T09:13:10.388Z,63.50
2023-05-20T09:15:37.793Z,61.80
2023-05-20T09:18:06.250Z,59.60
2023-05-20T09:20:35.434Z,59.10
2023-05-20T09:23:04.949Z,59.10
2023-05-20T09:25:32.518Z,58.00
2023-05-20T09:27:59.745Z,58.00
2023-05-20T09:30:26.831Z,58.60
2023-05-20T09:32:57.627Z,58.10
2023-05-20T09:35:26.667Z,57.90
2023-05-20T09:37:55.305Z,57.60
2023-05-20T09:40:27.989Z,56.70
2023-05-20T09:43:04.529Z,56.90
2023-05-20T09:45:31.868Z,57.10
2023-05-20T09:48:01.385Z,57.70
2023-05-20T09:50:29.041Z,57.40
2023-05-20T09:52:56.203Z,56.70
2023-05-20T09:55:25.318Z,57.00
2023-05-20T09:57:53.279Z,57.70
2023-05-20T10:00:21.824Z,57.70
2023-05-20T10:02:51.469Z,56.90
2023-05-20T10:05:21.716Z,57.40
2023-05-20T10:08:25.911Z,56.60
2023-05-20T10:11:19.788Z,56.50
2023-05-20T10:14:07.849Z,56.20
2023-05-20T10:17:00.247Z,56.20
2023-05-20T10:19:32.820Z,56.90
2023-05-20T10:22:05.116Z,57.10
2023-05-20T10:24:43.037Z,54.90
2023-05-20T10:27:15.578Z,55.00
2023-05-20T10:29:53.764Z,55.10
2023-05-20T10:32:28.621Z,55.20
2023-05-20T10:35:09.150Z,55.40
2023-05-20T10:37:48.306Z,55.80
2023-05-20T10:40:18.182Z,56.20
2023-05-20T10:42:46.219Z,56.30
2023-05-20T10:45:24.476Z,55.80
2023-05-20T10:47:58.857Z,55.50
2023-05-20T10:50:35.050Z,55.30
2023-05-20T10:53:08.197Z,54.70
2023-05-20T10:55:41.688Z,54.70
2023-05-20T10:58:10.002Z,54.80
2023-05-20T11:00:37.977Z,54.40
2023-05-20T11:03:06.599Z,54.80
2023-05-20T11:05:33.868Z,54.60
2023-05-20T11:08:13.710Z,54.50
2023-05-20T11:10:47.342Z,54.90
2023-05-20T11:13:15.515Z,54.90
2023-05-20T11:15:42.649Z,55.60
2023-05-20T11:18:12.542Z,55.50
2023-05-20T11:20:39.429Z,55.40
2023-05-20T11:23:11.635Z,55.40
2023-05-20T11:25:38.408Z,55.70
2023-05-20T11:28:08.300Z,56.20
2023-05-20T11:30:35.394Z,57.30
2023-05-20T11:33:04.046Z,56.30
2023-05-20T11:35:33.294Z,55.50
2023-05-20T11:38:04.923Z,55.50
2023-05-20T11:40:46.399Z,55.50
2023-05-20T11:43:17.506Z,54.30
2023-05-20T11:45:45.881Z,54.20
2023-05-20T11:48:14.772Z,54.80
2023-05-20T11:50:44.126Z,54.50
2023-05-20T11:53:15.773Z,54.40
2023-05-20T11:56:01.922Z,54.80
2023-05-20T11:58:32.411Z,54.20
2023-05-20T12:01:17.847Z,53.90
2023-05-20T12:03:48.619Z,53.70
2023-05-20T12:06:17.630Z,54.50
2023-05-20T12:08:44.501Z,54.90
2023-05-20T12:11:11.373Z,54.00
2023-05-20T12:13:39.776Z,53.40
2023-05-20T12:16:06.991Z,52.30
2023-05-20T12:18:34.066Z,52.40
2023-05-20T12:21:01.784Z,53.70
2023-05-20T12:23:30.827Z,52.60
2023-05-20T12:25:57.685Z,52.50
2023-05-20T12:28:24.556Z,52.80
2023-05-20T12:30:51.646Z,52.40
2023-05-20T12:33:18.538Z,52.90
2023-05-20T12:35:46.174Z,52.50
2023-05-20T12:38:13.122Z,52.50
2023-05-20T12:40:39.984Z,52.50
2023-05-20T12:43:07.223Z,51.90
2023-05-20T12:45:34.148Z,52.40
2023-05-20T12:48:01.390Z,52.30
2023-05-20T12:50:28.405Z,52.30
2023-05-20T12:52:55.515Z,52.40
2023-05-20T12:55:22.889Z,52.40
2023-05-20T12:57:50.302Z,52.90
2023-05-20T13:00:17.721Z,53.40
2023-05-20T13:02:44.928Z,53.50
2023-05-20T13:05:12.328Z,54.10
2023-05-20T13:07:39.605Z,55.30
2023-05-20T13:10:08.117Z,55.30
2023-05-20T13:12:35.401Z,55.70
2023-05-20T13:15:02.547Z,55.60
2023-05-20T13:17:29.462Z,55.70
2023-05-20T13:19:56.530Z,55.20
2023-05-20T13:22:23.578Z,54.90
2023-05-20T13:24:50.615Z,55.30
2023-05-20T13:27:17.532Z,55.10
2023-05-20T13:29:44.674Z,55.00
2023-05-20T13:32:11.633Z,55.60
2023-05-20T13:34:38.965Z,55.60
2023-05-20T13:37:06.173Z,56.00
2023-05-20T13:39:33.155Z,56.10
2023-05-20T13:42:00.254Z,55.70
2023-05-20T13:44:27.060Z,56.20
2023-05-20T13:46:53.928Z,56.00
2023-05-20T13:49:21.453Z,56.50
2023-05-20T13:51:48.499Z,55.90
2023-05-20T13:54:15.628Z,55.70
2023-05-20T13:56:42.672Z,56.10
2023-05-20T13:59:09.505Z,56.10
2023-05-20T14:01:39.012Z,56.00
2023-05-20T14:04:07.424Z,56.00
2023-05-20T14:06:34.387Z,56.00
2023-05-20T14:09:02.503Z,57.20
2023-05-20T14:11:29.376Z,57.50
2023-05-20T14:13:56.204Z,57.60
2023-05-20T14:16:23.220Z,57.70
2023-05-20T14:18:50.214Z,57.10
2023-05-20T14:21:17.089Z,57.10
2023-05-20T14:23:45.164Z,57.50
2023-05-20T14:26:12.213Z,57.60
2023-05-20T14:28:39.389Z,57.40
2023-05-20T14:31:08.971Z,57.30
2023-05-20T14:33:36.741Z,57.30
2023-05-20T14:36:03.964Z,57.70
2023-05-20T14:38:30.999Z,57.40
2023-05-20T14:40:57.913Z,58.00
2023-05-20T14:43:24.673Z,57.60
2023-05-20T14:45:52.832Z,57.80
2023-05-20T14:48:19.681Z,58.00
2023-05-20T14:50:48.346Z,57.70
2023-05-20T14:53:17.372Z,57.40
2023-05-20T14:55:44.278Z,57.10
2023-05-20T14:58:11.150Z,57.80
2023-05-20T15:00:38.534Z,57.10
2023-05-20T15:03:05.634Z,57.10
2023-05-20T15:05:32.521Z,57.40
2023-05-20T15:07:59.396Z,57.40
2023-05-20T15:10:26.257Z,57.20
2023-05-20T15:12:53.599Z,57.30
2023-05-20T15:15:21.626Z,56.10
2023-05-20T15:17:48.670Z,57.30
2023-05-20T15:20:15.858Z,57.90
2023-05-20T15:22:47.894Z,57.50
2023-05-20T15:25:15.197Z,58.10
2023-05-20T15:27:42.388Z,58.20
2023-05-20T15:30:10.100Z,57.90
2023-05-20T15:32:37.007Z,56.20
2023-05-20T15:35:04.409Z,56.30
2023-05-20T15:37:31.416Z,57.70
2023-05-20T15:39:58.233Z,58.30
2023-05-20T15:42:25.619Z,58.20
2023-05-20T15:44:52.490Z,57.80
2023-05-20T15:47:19.336Z,57.80
2023-05-20T15:49:46.306Z,58.00
2023-05-20T15:52:14.138Z,58.00
2023-05-20T15:54:41.104Z,58.40
2023-05-20T15:57:08.044Z,57.80
2023-05-20T15:59:34.860Z,57.70
2023-05-20T16:02:01.790Z,56.90
2023-05-20T16:04:28.861Z,57.30
2023-05-20T16:06:56.068Z,56.50
2023-05-20T16:09:22.869Z,56.50
2023-05-20T16:11:49.702Z,55.80
2023-05-20T16:14:16.551Z,55.90
2023-05-20T16:16:43.437Z,55.40
2023-05-20T16:19:10.513Z,55.60
2023-05-20T16:21:37.438Z,55.60
2023-05-20T16:24:04.728Z,55.80
2023-05-20T16:26:31.729Z,55.80
2023-05-20T16:28:58.548Z,56.00
2023-05-20T16:31:26.659Z,56.50
2023-05-20T16:33:53.571Z,56.90
2023-05-20T16:36:21.710Z,57.00
2023-05-20T16:38:48.509Z,57.20
2023-05-20T16:41:16.367Z,57.00
2023-05-20T16:43:43.343Z,57.40
2023-05-20T16:46:10.534Z,57.10
2023-05-20T16:48:37.420Z,58.80
2023-05-20T16:51:04.553Z,59.10
2023-05-20T16:53:31.577Z,58.60
2023-05-20T16:55:58.417Z,59.20
2023-05-20T16:58:25.245Z,58.90
2023-05-20T17:00:52.482Z,58.90
2023-05-20T17:03:20.917Z,59.40
2023-05-20T17:05:47.915Z,59.40
2023-05-20T17:08:14.853Z,59.40
2023-05-20T17:10:41.832Z,59.60
2023-05-20T17:13:08.829Z,59.70
2023-05-20T17:15:37.225Z,59.90
2023-05-20T17:18:04.281Z,60.00
2023-05-20T17:20:31.691Z,60.10
2023-05-20T17:22:58.757Z,60.30
2023-05-20T17:25:25.927Z,60.40
2023-05-20T17:27:52.705Z,60.50
2023-05-20T17:30:19.644Z,60.00
2023-05-20T17:32:46.588Z,60.30
2023-05-20T17:35:13.519Z,60.30
2023-05-20T17:37:40.534Z,60.40
2023-05-20T17:40:07.956Z,60.10
2023-05-20T17:42:34.857Z,60.30
2023-05-20T17:45:01.784Z,60.20
2023-05-20T17:47:28.846Z,60.30
2023-05-20T17:49:55.990Z,60.50
2023-05-20T17:52:22.821Z,61.20
2023-05-20T17:54:49.677Z,61.60
2023-05-20T17:57:16.550Z,61.40
2023-05-20T17:59:45.554Z,62.00
2023-05-20T18:02:12.900Z,62.40
2023-05-20T18:04:39.803Z,63.00
2023-05-20T18:07:09.422Z,62.70
2023-05-20T18:09:36.742Z,62.70
2023-05-20T18:12:03.770Z,63.00
2023-05-20T18:14:30.703Z,63.30
2023-05-20T18:16:57.604Z,62.90
2023-05-20T18:19:25.310Z,63.00
2023-05-20T18:21:52.405Z,62.90
2023-05-20T18:24:20.551Z,62.70
2023-05-20T18:26:47.578Z,62.30
2023-05-20T18:29:14.600Z,62.70
2023-05-20T18:31:43.398Z,62.60
2023-05-20T18:34:10.834Z,62.30
2023-05-20T18:36:37.833Z,62.40
2023-05-20T18:39:04.940Z,62.40
2023-05-20T18:41:45.891Z,62.20
2023-05-20T18:44:17.635Z,62.90
2023-05-20T18:46:45.046Z,62.30
2023-05-20T18:49:11.953Z,62.10
2023-05-20T18:51:39.955Z,62.30
2023-05-20T18:54:07.029Z,62.20
2023-05-20T18:56:34.649Z,62.50
2023-05-20T18:59:01.632Z,63.60
2023-05-20T19:01:28.578Z,63.00
2023-05-20T19:03:55.554Z,63.80
2023-05-20T19:06:22.574Z,62.60
2023-05-20T19:08:49.625Z,62.00
2023-05-20T19:11:16.874Z,62.80
2023-05-20T19:13:43.831Z,62.00
2023-05-20T19:16:10.856Z,62.70
2023-05-20T19:18:37.655Z,63.20
2023-05-20T19:21:04.599Z,62.90
2023-05-20T19:23:32.573Z,62.00
2023-05-20T19:25:59.485Z,62.10
2023-05-20T19:28:26.377Z,61.60
2023-05-20T19:30:53.501Z,60.90
2023-05-20T19:33:21.190Z,61.00
2023-05-20T19:35:48.228Z,61.10
2023-05-20T19:38:15.542Z,61.00
2023-05-20T19:40:47.113Z,60.70
2023-05-20T19:43:14.226Z,61.10
2023-05-20T19:45:41.201Z,60.70
2023-05-20T19:48:08.175Z,60.60
2023-05-20T19:50:35.061Z,60.50
2023-05-20T19:53:06.289Z,61.20
2023-05-20T19:55:35.289Z,62.00
2023-05-20T19:58:02.495Z,61.30
2023-05-20T20:00:29.661Z,61.40
2023-05-20T20:02:57.078Z,61.20
2023-05-20T20:05:25.902Z,61.50
2023-05-20T20:07:53.209Z,61.00
2023-05-20T20:10:20.243Z,61.10
2023-05-20T20:12:47.127Z,61.00
2023-05-20T20:15:14.389Z,61.30
2023-05-20T20:17:45.617Z,60.70
2023-05-20T20:20:15.504Z,60.60
2023-05-20T20:22:43.693Z,60.60
2023-05-20T20:25:13.922Z,61.70
2023-05-20T20:27:41.787Z,61.60
2023-05-20T20:30:09.253Z,61.10
2023-05-20T20:32:37.861Z,60.80
2023-05-20T20:35:06.112Z,60.70
2023-05-20T20:37:33.457Z,60.40
2023-05-20T20:40:07.805Z,60.70
2023-05-20T20:42:34.690Z,60.50
2023-05-20T20:45:02.416Z,60.70
2023-05-20T20:47:29.459Z,60.70
2023-05-20T20:49:56.627Z,60.80
2023-05-20T20:52:23.561Z,60.80
2023-05-20T20:54:50.438Z,61.60
2023-05-20T20:57:17.614Z,62.10
2023-05-20T20:59:48.035Z,62.40
2023-05-20T21:02:15.073Z,61.30
2023-05-20T21:04:42.838Z,61.70
2023-05-20T21:07:09.844Z,60.30
2023-05-20T21:09:36.726Z,60.20
2023-05-20T21:12:06.707Z,59.90
2023-05-20T21:14:33.744Z,60.20
2023-05-20T21:17:00.712Z,60.30
2023-05-20T21:19:28.254Z,60.70
2023-05-20T21:21:55.474Z,60.40
2023-05-20T21:24:22.215Z,60.50
2023-05-20T21:26:48.978Z,62.20
2023-05-20T21:29:15.753Z,63.10
2023-05-20T21:31:42.606Z,63.00
2023-05-20T21:34:09.353Z,64.20
2023-05-20T21:36:36.357Z,64.60
2023-05-20T21:39:03.357Z,63.90
2023-05-20T21:41:30.432Z,65.70
2023-05-20T21:43:57.311Z,65.40
2023-05-20T21:46:24.358Z,64.60
2023-05-20T21:48:51.162Z,63.90
2023-05-20T21:51:17.957Z,64.10
2023-05-20T21:53:44.838Z,64.90
2023-05-20T21:56:11.648Z,63.80
2023-05-20T21:58:41.273Z,63.90
2023-05-20T22:01:09.966Z,63.30
2023-05-20T22:03:38.267Z,63.50
2023-05-20T22:06:06.422Z,63.90
2023-05-20T22:08:36.003Z,63.70
2023-05-20T22:11:07.476Z,64.20
2023-05-20T22:13:35.557Z,63.90
2023-05-20T22:16:05.108Z,65.20
2023-05-20T22:18:32.241Z,65.30
2023-05-20T22:21:02.052Z,64.90
2023-05-20T22:23:29.276Z,65.90
2023-05-20T22:25:56.592Z,66.40
2023-05-20T22:28:23.901Z,66.10
2023-05-20T22:30:51.524Z,66.90
2023-05-20T22:33:18.549Z,66.70
2023-05-20T22:35:45.429Z,66.60
2023-05-20T22:38:12.245Z,66.90
2023-05-20T22:40:39.534Z,65.90
2023-05-20T22:43:06.458Z,66.30
2023-05-20T22:45:33.528Z,66.00
2023-05-20T22:48:00.600Z,66.40
2023-05-20T22:50:27.740Z,65.60
2023-05-20T22:52:54.958Z,66.20
2023-05-20T22:55:23.350Z,66.10
2023-05-20T22:57:50.114Z,66.90
2023-05-20T23:00:18.159Z,65.50
2023-05-20T23:02:49.886Z,66.30
2023-05-20T23:05:17.443Z,65.10
2023-05-20T23:07:45.034Z,64.60
2023-05-20T23:10:12.039Z,64.20
2023-05-20T23:12:39.191Z,64.80
2023-05-20T23:15:06.764Z,64.40
2023-05-20T23:17:33.686Z,63.60
2023-05-20T23:20:00.649Z,63.40
2023-05-20T23:22:27.496Z,62.90
2023-05-20T23:24:54.362Z,63.40
2023-05-20T23:27:21.184Z,63.40
2023-05-20T23:29:48.024Z,63.20
2023-05-20T23:32:14.802Z,64.30
2023-05-20T23:34:41.684Z,63.70
2023-05-20T23:37:08.512Z,63.60
2023-05-20T23:39:35.264Z,63.40
2023-05-20T23:42:02.570Z,62.50
2023-05-20T23:44:29.441Z,63.20
2023-05-20T23:46:56.349Z,62.90
2023-05-20T23:49:27.126Z,62.90
2023-05-20T23:51:54.051Z,62.80
2023-05-20T23:54:21.153Z,62.50
2023-05-20T23:56:48.220Z,62.40
2023-05-20T23:59:15.363Z,62.40
